sensor_id;sensor_type;location;lat;lon;timestamp;temperature;humidity
78516;SHT31;67815;51.990;5.688;2023-03-13T00:01:47;11.5;74.0
78516;SHT31;67815;51.990;5.688;2023-03-13T00:04:20;11.5;74.1
78516;SHT31;67815;51.990;5.688;2023-03-13T00:06:50;11.5;74.3
78516;SHT31;67815;51.990;5.688;2023-03-13T00:09:19;11.5;74.3
78516;SHT31;67815;51.990;5.688;2023-03-13T00:11:50;11.5;74.4
78516;SHT31;67815;51.990;5.688;2023-03-13T00:14:20;11.5;74.4
78516;SHT31;67815;51.990;5.688;2023-03-13T00:16:49;11.4;74.5
78516;SHT31;67815;51.990;5.688;2023-03-13T00:19:21;11.4;74.6
78516;SHT31;67815;51.990;5.688;2023-03-13T00:21:50;11.4;75.0
78516;SHT31;67815;51.990;5.688;2023-03-13T00:24:20;11.4;74.9
78516;SHT31;67815;51.990;5.688;2023-03-13T00:26:49;11.4;75.1
78516;SHT31;67815;51.990;5.688;2023-03-13T00:29:19;11.4;75.4
78516;SHT31;67815;51.990;5.688;2023-03-13T00:31:48;11.4;75.4
78516;SHT31;67815;51.990;5.688;2023-03-13T00:34:18;11.4;75.5
78516;SHT31;67815;51.990;5.688;2023-03-13T00:36:49;11.4;75.5
78516;SHT31;67815;51.990;5.688;2023-03-13T00:39:19;11.4;75.6
78516;SHT31;67815;51.990;5.688;2023-03-13T00:41:48;11.4;75.9
78516;SHT31;67815;51.990;5.688;2023-03-13T00:44:20;11.4;76.1
78516;SHT31;67815;51.990;5.688;2023-03-13T00:46:51;11.4;76.3
78516;SHT31;67815;51.990;5.688;2023-03-13T00:49:21;11.4;76.6
78516;SHT31;67815;51.990;5.688;2023-03-13T00:51:51;11.4;76.7
78516;SHT31;67815;51.990;5.688;2023-03-13T00:54:21;11.3;76.9
78516;SHT31;67815;51.990;5.688;2023-03-13T00:56:53;11.3;77.0
78516;SHT31;67815;51.990;5.688;2023-03-13T00:59:22;11.3;77.1
78516;SHT31;67815;51.990;5.688;2023-03-13T01:01:52;11.3;77.2
78516;SHT31;67815;51.990;5.688;2023-03-13T01:04:21;11.3;77.3
78516;SHT31;67815;51.990;5.688;2023-03-13T01:06:51;11.3;77.4
78516;SHT31;67815;51.990;5.688;2023-03-13T01:09:21;11.3;77.6
78516;SHT31;67815;51.990;5.688;2023-03-13T01:11:50;11.3;77.7
78516;SHT31;67815;51.990;5.688;2023-03-13T01:14:20;11.3;77.8
78516;SHT31;67815;51.990;5.688;2023-03-13T01:16:49;11.3;77.8
78516;SHT31;67815;51.990;5.688;2023-03-13T01:19:19;11.3;78.0
78516;SHT31;67815;51.990;5.688;2023-03-13T01:21:49;11.3;78.2
78516;SHT31;67815;51.990;5.688;2023-03-13T01:24:18;11.3;78.3
78516;SHT31;67815;51.990;5.688;2023-03-13T01:26:49;11.3;78.5
78516;SHT31;67815;51.990;5.688;2023-03-13T01:29:19;11.3;78.7
78516;SHT31;67815;51.990;5.688;2023-03-13T01:31:48;11.3;78.8
78516;SHT31;67815;51.990;5.688;2023-03-13T01:34:18;11.3;78.9
78516;SHT31;67815;51.990;5.688;2023-03-13T01:36:47;11.3;79.0
78516;SHT31;67815;51.990;5.688;2023-03-13T01:39:18;11.3;79.1
78516;SHT31;67815;51.990;5.688;2023-03-13T01:41:48;11.4;79.2
78516;SHT31;67815;51.990;5.688;2023-03-13T01:44:23;11.4;79.4
78516;SHT31;67815;51.990;5.688;2023-03-13T01:46:55;11.4;79.6
78516;SHT31;67815;51.990;5.688;2023-03-13T01:49:28;11.4;79.6
78516;SHT31;67815;51.990;5.688;2023-03-13T01:52:04;11.4;79.7
78516;SHT31;67815;51.990;5.688;2023-03-13T01:54:45;11.4;79.8
78516;SHT31;67815;51.990;5.688;2023-03-13T01:57:22;11.4;79.9
78516;SHT31;67815;51.990;5.688;2023-03-13T01:59:55;11.4;80.0
78516;SHT31;67815;51.990;5.688;2023-03-13T02:02:29;11.4;79.9
78516;SHT31;67815;51.990;5.688;2023-03-13T02:05:02;11.5;80.0
78516;SHT31;67815;51.990;5.688;2023-03-13T02:07:39;11.5;80.0
78516;SHT31;67815;51.990;5.688;2023-03-13T02:10:13;11.5;80.0
78516;SHT31;67815;51.990;5.688;2023-03-13T02:12:46;11.5;80.0
78516;SHT31;67815;51.990;5.688;2023-03-13T02:15:18;11.5;80.2
78516;SHT31;67815;51.990;5.688;2023-03-13T02:17:49;11.6;80.2
78516;SHT31;67815;51.990;5.688;2023-03-13T02:20:21;11.6;80.4
78516;SHT31;67815;51.990;5.688;2023-03-13T02:22:59;11.6;80.4
78516;SHT31;67815;51.990;5.688;2023-03-13T02:25:36;11.6;80.5
78516;SHT31;67815;51.990;5.688;2023-03-13T02:28:11;11.6;80.5
78516;SHT31;67815;51.990;5.688;2023-03-13T02:30:44;11.6;80.4
78516;SHT31;67815;51.990;5.688;2023-03-13T02:33:15;11.7;80.5
78516;SHT31;67815;51.990;5.688;2023-03-13T02:35:47;11.7;80.6
78516;SHT31;67815;51.990;5.688;2023-03-13T02:38:23;11.7;80.6
78516;SHT31;67815;51.990;5.688;2023-03-13T02:40:55;11.7;80.8
78516;SHT31;67815;51.990;5.688;2023-03-13T02:43:29;11.7;81.2
78516;SHT31;67815;51.990;5.688;2023-03-13T02:46:04;11.8;81.4
78516;SHT31;67815;51.990;5.688;2023-03-13T02:48:37;11.8;81.4
78516;SHT31;67815;51.990;5.688;2023-03-13T02:51:16;11.8;81.4
78516;SHT31;67815;51.990;5.688;2023-03-13T02:53:49;11.8;81.9
78516;SHT31;67815;51.990;5.688;2023-03-13T02:56:21;11.8;81.8
78516;SHT31;67815;51.990;5.688;2023-03-13T02:58:52;11.9;81.5
78516;SHT31;67815;51.990;5.688;2023-03-13T03:01:22;11.9;81.8
78516;SHT31;67815;51.990;5.688;2023-03-13T03:03:52;11.9;81.8
78516;SHT31;67815;51.990;5.688;2023-03-13T03:06:21;11.9;82.0
78516;SHT31;67815;51.990;5.688;2023-03-13T03:08:51;12.0;81.8
78516;SHT31;67815;51.990;5.688;2023-03-13T03:11:21;12.0;81.8
78516;SHT31;67815;51.990;5.688;2023-03-13T03:13:51;12.0;81.8
78516;SHT31;67815;51.990;5.688;2023-03-13T03:16:22;12.1;81.8
78516;SHT31;67815;51.990;5.688;2023-03-13T03:18:52;12.1;82.1
78516;SHT31;67815;51.990;5.688;2023-03-13T03:21:21;12.1;82.2
78516;SHT31;67815;51.990;5.688;2023-03-13T03:23:51;12.1;82.5
78516;SHT31;67815;51.990;5.688;2023-03-13T03:26:21;12.1;82.3
78516;SHT31;67815;51.990;5.688;2023-03-13T03:28:51;12.2;82.9
78516;SHT31;67815;51.990;5.688;2023-03-13T03:31:21;12.2;82.9
78516;SHT31;67815;51.990;5.688;2023-03-13T03:33:51;12.2;82.9
78516;SHT31;67815;51.990;5.688;2023-03-13T03:36:22;12.2;82.7
78516;SHT31;67815;51.990;5.688;2023-03-13T03:38:52;12.3;82.7
78516;SHT31;67815;51.990;5.688;2023-03-13T03:41:21;12.3;83.0
78516;SHT31;67815;51.990;5.688;2023-03-13T03:43:51;12.3;82.7
78516;SHT31;67815;51.990;5.688;2023-03-13T03:46:21;12.3;82.5
78516;SHT31;67815;51.990;5.688;2023-03-13T03:48:51;12.4;82.5
78516;SHT31;67815;51.990;5.688;2023-03-13T03:51:21;12.4;82.7
78516;SHT31;67815;51.990;5.688;2023-03-13T03:53:51;12.4;82.8
78516;SHT31;67815;51.990;5.688;2023-03-13T03:56:21;12.4;82.3
78516;SHT31;67815;51.990;5.688;2023-03-13T03:58:50;12.5;82.7
78516;SHT31;67815;51.990;5.688;2023-03-13T04:01:20;12.5;83.0
78516;SHT31;67815;51.990;5.688;2023-03-13T04:03:50;12.5;83.1
78516;SHT31;67815;51.990;5.688;2023-03-13T04:06:19;12.5;82.7
78516;SHT31;67815;51.990;5.688;2023-03-13T04:08:49;12.6;83.2
78516;SHT31;67815;51.990;5.688;2023-03-13T04:11:18;12.6;83.0
78516;SHT31;67815;51.990;5.688;2023-03-13T04:13:49;12.6;82.8
78516;SHT31;67815;51.990;5.688;2023-03-13T04:16:18;12.6;82.7
78516;SHT31;67815;51.990;5.688;2023-03-13T04:18:48;12.6;83.2
78516;SHT31;67815;51.990;5.688;2023-03-13T04:21:18;12.6;83.1
78516;SHT31;67815;51.990;5.688;2023-03-13T04:23:48;12.7;82.8
78516;SHT31;67815;51.990;5.688;2023-03-13T04:26:18;12.7;82.9
78516;SHT31;67815;51.990;5.688;2023-03-13T04:28:48;12.7;82.8
78516;SHT31;67815;51.990;5.688;2023-03-13T04:31:18;12.7;82.9
78516;SHT31;67815;51.990;5.688;2023-03-13T04:33:47;12.7;83.0
78516;SHT31;67815;51.990;5.688;2023-03-13T04:36:17;12.8;82.7
78516;SHT31;67815;51.990;5.688;2023-03-13T04:38:46;12.8;82.9
78516;SHT31;67815;51.990;5.688;2023-03-13T04:41:16;12.8;82.8
78516;SHT31;67815;51.990;5.688;2023-03-13T04:43:45;12.8;82.8
78516;SHT31;67815;51.990;5.688;2023-03-13T04:46:15;12.8;82.9
78516;SHT31;67815;51.990;5.688;2023-03-13T04:48:45;12.9;82.8
78516;SHT31;67815;51.990;5.688;2023-03-13T04:51:15;12.9;82.7
78516;SHT31;67815;51.990;5.688;2023-03-13T04:53:44;12.9;82.8
78516;SHT31;67815;51.990;5.688;2023-03-13T04:56:22;12.9;82.7
78516;SHT31;67815;51.990;5.688;2023-03-13T04:58:53;12.9;82.7
78516;SHT31;67815;51.990;5.688;2023-03-13T05:01:24;12.9;82.7
78516;SHT31;67815;51.990;5.688;2023-03-13T05:03:54;13.0;82.6
78516;SHT31;67815;51.990;5.688;2023-03-13T05:06:23;13.0;82.5
78516;SHT31;67815;51.990;5.688;2023-03-13T05:08:53;13.0;82.5
78516;SHT31;67815;51.990;5.688;2023-03-13T05:11:22;13.0;82.4
78516;SHT31;67815;51.990;5.688;2023-03-13T05:13:53;13.0;82.6
78516;SHT31;67815;51.990;5.688;2023-03-13T05:16:22;13.0;82.4
78516;SHT31;67815;51.990;5.688;2023-03-13T05:18:54;13.1;82.3
78516;SHT31;67815;51.990;5.688;2023-03-13T05:21:24;13.1;82.2
78516;SHT31;67815;51.990;5.688;2023-03-13T05:23:53;13.1;82.0
78516;SHT31;67815;51.990;5.688;2023-03-13T05:26:24;13.1;81.9
78516;SHT31;67815;51.990;5.688;2023-03-13T05:28:53;13.1;81.8
78516;SHT31;67815;51.990;5.688;2023-03-13T05:31:23;13.2;81.8
78516;SHT31;67815;51.990;5.688;2023-03-13T05:33:53;13.2;81.7
78516;SHT31;67815;51.990;5.688;2023-03-13T05:36:23;13.2;81.6
78516;SHT31;67815;51.990;5.688;2023-03-13T05:38:52;13.2;81.6
78516;SHT31;67815;51.990;5.688;2023-03-13T05:41:22;13.2;81.4
78516;SHT31;67815;51.990;5.688;2023-03-13T05:43:52;13.2;81.6
78516;SHT31;67815;51.990;5.688;2023-03-13T05:46:21;13.2;81.4
78516;SHT31;67815;51.990;5.688;2023-03-13T05:48:51;13.2;81.5
78516;SHT31;67815;51.990;5.688;2023-03-13T05:51:21;13.2;81.3
78516;SHT31;67815;51.990;5.688;2023-03-13T05:53:51;13.3;81.2
78516;SHT31;67815;51.990;5.688;2023-03-13T05:56:20;13.3;81.3
78516;SHT31;67815;51.990;5.688;2023-03-13T05:58:50;13.3;81.2
78516;SHT31;67815;51.990;5.688;2023-03-13T06:01:21;13.3;81.1
78516;SHT31;67815;51.990;5.688;2023-03-13T06:03:51;13.3;81.0
78516;SHT31;67815;51.990;5.688;2023-03-13T06:06:21;13.3;80.9
78516;SHT31;67815;51.990;5.688;2023-03-13T06:08:52;13.3;80.8
78516;SHT31;67815;51.990;5.688;2023-03-13T06:11:22;13.4;80.7
78516;SHT31;67815;51.990;5.688;2023-03-13T06:13:52;13.4;80.6
78516;SHT31;67815;51.990;5.688;2023-03-13T06:16:24;13.4;80.4
78516;SHT31;67815;51.990;5.688;2023-03-13T06:18:54;13.4;80.4
78516;SHT31;67815;51.990;5.688;2023-03-13T06:21:24;13.4;80.3
78516;SHT31;67815;51.990;5.688;2023-03-13T06:23:55;13.4;80.3
78516;SHT31;67815;51.990;5.688;2023-03-13T06:26:26;13.4;79.9
78516;SHT31;67815;51.990;5.688;2023-03-13T06:28:56;13.4;80.1
78516;SHT31;67815;51.990;5.688;2023-03-13T06:31:26;13.4;80.2
78516;SHT31;67815;51.990;5.688;2023-03-13T06:33:56;13.4;80.0
78516;SHT31;67815;51.990;5.688;2023-03-13T06:36:25;13.4;80.1
78516;SHT31;67815;51.990;5.688;2023-03-13T06:38:57;13.4;80.0
78516;SHT31;67815;51.990;5.688;2023-03-13T06:41:27;13.4;79.9
78516;SHT31;67815;51.990;5.688;2023-03-13T06:43:56;13.4;79.8
78516;SHT31;67815;51.990;5.688;2023-03-13T06:46:26;13.5;79.6
78516;SHT31;67815;51.990;5.688;2023-03-13T06:48:56;13.5;79.8
78516;SHT31;67815;51.990;5.688;2023-03-13T06:51:31;13.5;79.8
78516;SHT31;67815;51.990;5.688;2023-03-13T06:54:02;13.5;79.8
78516;SHT31;67815;51.990;5.688;2023-03-13T06:56:32;13.5;79.7
78516;SHT31;67815;51.990;5.688;2023-03-13T06:59:03;13.5;79.8
78516;SHT31;67815;51.990;5.688;2023-03-13T07:01:33;13.5;79.4
78516;SHT31;67815;51.990;5.688;2023-03-13T07:04:02;13.5;79.4
78516;SHT31;67815;51.990;5.688;2023-03-13T07:06:32;13.5;79.1
78516;SHT31;67815;51.990;5.688;2023-03-13T07:09:02;13.5;79.4
78516;SHT31;67815;51.990;5.688;2023-03-13T07:11:33;13.5;79.1
78516;SHT31;67815;51.990;5.688;2023-03-13T07:14:02;13.5;78.3
78516;SHT31;67815;51.990;5.688;2023-03-13T07:16:32;13.5;79.0
78516;SHT31;67815;51.990;5.688;2023-03-13T07:19:02;13.6;78.3
78516;SHT31;67815;51.990;5.688;2023-03-13T07:21:32;13.6;78.6
78516;SHT31;67815;51.990;5.688;2023-03-13T07:24:01;13.6;78.0
78516;SHT31;67815;51.990;5.688;2023-03-13T07:26:33;13.6;78.6
78516;SHT31;67815;51.990;5.688;2023-03-13T07:29:03;13.7;78.6
78516;SHT31;67815;51.990;5.688;2023-03-13T07:31:33;13.7;78.1
78516;SHT31;67815;51.990;5.688;2023-03-13T07:34:02;13.7;78.4
78516;SHT31;67815;51.990;5.688;2023-03-13T07:36:32;13.7;77.7
78516;SHT31;67815;51.990;5.688;2023-03-13T07:39:02;13.7;77.7
78516;SHT31;67815;51.990;5.688;2023-03-13T07:41:32;13.8;78.5
78516;SHT31;67815;51.990;5.688;2023-03-13T07:44:02;13.8;77.5
78516;SHT31;67815;51.990;5.688;2023-03-13T07:46:33;13.8;77.9
78516;SHT31;67815;51.990;5.688;2023-03-13T07:49:03;13.8;78.3
78516;SHT31;67815;51.990;5.688;2023-03-13T07:51:32;13.9;78.6
78516;SHT31;67815;51.990;5.688;2023-03-13T07:54:02;13.9;78.5
78516;SHT31;67815;51.990;5.688;2023-03-13T07:56:32;13.9;78.3
78516;SHT31;67815;51.990;5.688;2023-03-13T07:59:01;13.9;78.6
78516;SHT31;67815;51.990;5.688;2023-03-13T08:01:31;13.9;78.6
78516;SHT31;67815;51.990;5.688;2023-03-13T08:04:03;13.9;78.6
78516;SHT31;67815;51.990;5.688;2023-03-13T08:06:34;13.9;78.9
78516;SHT31;67815;51.990;5.688;2023-03-13T08:09:04;13.9;78.6
78516;SHT31;67815;51.990;5.688;2023-03-13T08:11:34;13.9;78.7
78516;SHT31;67815;51.990;5.688;2023-03-13T08:14:03;13.9;79.0
78516;SHT31;67815;51.990;5.688;2023-03-13T08:16:34;13.9;78.9
78516;SHT31;67815;51.990;5.688;2023-03-13T08:19:04;13.9;79.7
78516;SHT31;67815;51.990;5.688;2023-03-13T08:21:36;13.9;79.4
78516;SHT31;67815;51.990;5.688;2023-03-13T08:24:09;13.9;79.5
78516;SHT31;67815;51.990;5.688;2023-03-13T08:26:41;14.0;79.1
78516;SHT31;67815;51.990;5.688;2023-03-13T08:29:12;14.0;79.2
78516;SHT31;67815;51.990;5.688;2023-03-13T08:31:45;14.0;79.2
78516;SHT31;67815;51.990;5.688;2023-03-13T08:34:17;14.0;79.1
78516;SHT31;67815;51.990;5.688;2023-03-13T08:36:47;14.0;79.2
78516;SHT31;67815;51.990;5.688;2023-03-13T08:39:20;14.0;79.0
78516;SHT31;67815;51.990;5.688;2023-03-13T08:41:50;14.0;79.4
78516;SHT31;67815;51.990;5.688;2023-03-13T08:44:19;14.1;78.8
78516;SHT31;67815;51.990;5.688;2023-03-13T08:46:49;14.1;78.9
78516;SHT31;67815;51.990;5.688;2023-03-13T08:49:18;14.1;78.6
78516;SHT31;67815;51.990;5.688;2023-03-13T08:51:48;14.1;79.2
78516;SHT31;67815;51.990;5.688;2023-03-13T08:54:18;14.1;79.0
78516;SHT31;67815;51.990;5.688;2023-03-13T08:56:47;14.2;78.6
78516;SHT31;67815;51.990;5.688;2023-03-13T08:59:17;14.2;76.2
78516;SHT31;67815;51.990;5.688;2023-03-13T09:01:47;14.2;77.4
78516;SHT31;67815;51.990;5.688;2023-03-13T09:04:18;14.2;76.8
78516;SHT31;67815;51.990;5.688;2023-03-13T09:06:48;14.3;77.3
78516;SHT31;67815;51.990;5.688;2023-03-13T09:09:20;14.3;77.2
78516;SHT31;67815;51.990;5.688;2023-03-13T09:11:50;14.3;76.0
78516;SHT31;67815;51.990;5.688;2023-03-13T09:14:19;14.3;74.9
78516;SHT31;67815;51.990;5.688;2023-03-13T09:16:51;14.4;75.9
78516;SHT31;67815;51.990;5.688;2023-03-13T09:19:21;14.4;74.9
78516;SHT31;67815;51.990;5.688;2023-03-13T09:21:50;14.4;74.8
78516;SHT31;67815;51.990;5.688;2023-03-13T09:24:20;14.4;74.3
78516;SHT31;67815;51.990;5.688;2023-03-13T09:26:49;14.5;74.0
78516;SHT31;67815;51.990;5.688;2023-03-13T09:29:20;14.5;74.3
78516;SHT31;67815;51.990;5.688;2023-03-13T09:31:50;14.5;73.0
78516;SHT31;67815;51.990;5.688;2023-03-13T09:34:20;14.6;73.9
78516;SHT31;67815;51.990;5.688;2023-03-13T09:36:51;14.6;74.1
78516;SHT31;67815;51.990;5.688;2023-03-13T09:39:21;14.7;73.5
78516;SHT31;67815;51.990;5.688;2023-03-13T09:41:56;14.7;73.2
78516;SHT31;67815;51.990;5.688;2023-03-13T09:44:32;14.7;71.7
78516;SHT31;67815;51.990;5.688;2023-03-13T09:47:11;14.8;74.2
78516;SHT31;67815;51.990;5.688;2023-03-13T09:49:48;14.9;72.0
78516;SHT31;67815;51.990;5.688;2023-03-13T09:52:23;14.9;72.6
78516;SHT31;67815;51.990;5.688;2023-03-13T09:54:57;14.9;72.3
78516;SHT31;67815;51.990;5.688;2023-03-13T09:57:33;15.0;71.2
78516;SHT31;67815;51.990;5.688;2023-03-13T10:00:06;15.0;71.5
78516;SHT31;67815;51.990;5.688;2023-03-13T10:02:44;15.1;71.3
78516;SHT31;67815;51.990;5.688;2023-03-13T10:05:19;15.1;69.9
78516;SHT31;67815;51.990;5.688;2023-03-13T10:07:50;15.2;71.5
78516;SHT31;67815;51.990;5.688;2023-03-13T10:10:36;15.2;71.4
78516;SHT31;67815;51.990;5.688;2023-03-13T10:13:16;15.3;71.4
78516;SHT31;67815;51.990;5.688;2023-03-13T10:15:50;15.3;70.6
78516;SHT31;67815;51.990;5.688;2023-03-13T10:18:24;15.4;70.4
78516;SHT31;67815;51.990;5.688;2023-03-13T10:20:58;15.4;70.7
78516;SHT31;67815;51.990;5.688;2023-03-13T10:23:38;15.4;69.2
78516;SHT31;67815;51.990;5.688;2023-03-13T10:26:14;15.5;70.2
78516;SHT31;67815;51.990;5.688;2023-03-13T10:28:45;15.5;70.9
78516;SHT31;67815;51.990;5.688;2023-03-13T10:31:23;15.5;70.4
78516;SHT31;67815;51.990;5.688;2023-03-13T10:34:08;15.6;71.7
78516;SHT31;67815;51.990;5.688;2023-03-13T10:36:42;15.6;69.3
78516;SHT31;67815;51.990;5.688;2023-03-13T10:39:18;15.7;68.9
78516;SHT31;67815;51.990;5.688;2023-03-13T10:41:54;15.7;68.9
78516;SHT31;67815;51.990;5.688;2023-03-13T10:44:30;15.8;67.5
78516;SHT31;67815;51.990;5.688;2023-03-13T10:47:02;15.8;67.2
78516;SHT31;67815;51.990;5.688;2023-03-13T10:49:32;15.8;65.3
78516;SHT31;67815;51.990;5.688;2023-03-13T10:52:04;15.8;66.7
78516;SHT31;67815;51.990;5.688;2023-03-13T10:54:38;15.9;65.0
78516;SHT31;67815;51.990;5.688;2023-03-13T10:57:27;15.9;64.4
78516;SHT31;67815;51.990;5.688;2023-03-13T10:59:47;15.9;67.3
78516;SHT31;67815;51.990;5.688;2023-03-13T11:02:23;15.9;68.8
78516;SHT31;67815;51.990;5.688;2023-03-13T11:04:55;16.0;68.9
78516;SHT31;67815;51.990;5.688;2023-03-13T11:07:29;16.0;67.9
78516;SHT31;67815;51.990;5.688;2023-03-13T11:10:16;16.1;67.0
78516;SHT31;67815;51.990;5.688;2023-03-13T11:12:48;16.2;67.1
78516;SHT31;67815;51.990;5.688;2023-03-13T11:15:24;16.3;64.3
78516;SHT31;67815;51.990;5.688;2023-03-13T11:18:00;16.3;64.8
78516;SHT31;67815;51.990;5.688;2023-03-13T11:20:34;16.4;65.6
78516;SHT31;67815;51.990;5.688;2023-03-13T11:23:15;16.4;65.5
78516;SHT31;67815;51.990;5.688;2023-03-13T11:26:00;16.5;65.3
78516;SHT31;67815;51.990;5.688;2023-03-13T11:28:44;16.5;63.2
78516;SHT31;67815;51.990;5.688;2023-03-13T11:31:19;16.6;64.6
78516;SHT31;67815;51.990;5.688;2023-03-13T11:33:57;16.6;64.6
78516;SHT31;67815;51.990;5.688;2023-03-13T11:36:34;16.7;62.8
78516;SHT31;67815;51.990;5.688;2023-03-13T11:39:32;16.7;62.8
78516;SHT31;67815;51.990;5.688;2023-03-13T11:42:16;16.8;63.3
78516;SHT31;67815;51.990;5.688;2023-03-13T11:44:57;16.8;63.6
78516;SHT31;67815;51.990;5.688;2023-03-13T11:47:43;16.9;63.1
78516;SHT31;67815;51.990;5.688;2023-03-13T11:50:28;16.9;62.5
78516;SHT31;67815;51.990;5.688;2023-03-13T11:53:06;16.9;63.8
78516;SHT31;67815;51.990;5.688;2023-03-13T11:55:48;17.0;62.0
78516;SHT31;67815;51.990;5.688;2023-03-13T11:58:39;17.0;62.1
78516;SHT31;67815;51.990;5.688;2023-03-13T12:01:15;17.1;62.5
78516;SHT31;67815;51.990;5.688;2023-03-13T12:03:56;17.1;61.7
78516;SHT31;67815;51.990;5.688;2023-03-13T12:06:30;17.1;60.5
78516;SHT31;67815;51.990;5.688;2023-03-13T12:09:08;17.2;57.7
78516;SHT31;67815;51.990;5.688;2023-03-13T12:11:45;17.2;57.7
78516;SHT31;67815;51.990;5.688;2023-03-13T12:14:24;17.2;58.2
78516;SHT31;67815;51.990;5.688;2023-03-13T12:16:58;17.3;58.3
78516;SHT31;67815;51.990;5.688;2023-03-13T12:19:33;17.3;56.7
78516;SHT31;67815;51.990;5.688;2023-03-13T12:22:13;17.3;57.2
78516;SHT31;67815;51.990;5.688;2023-03-13T12:24:52;17.4;56.2
78516;SHT31;67815;51.990;5.688;2023-03-13T12:27:28;17.4;57.2
78516;SHT31;67815;51.990;5.688;2023-03-13T12:30:05;17.4;57.0
78516;SHT31;67815;51.990;5.688;2023-03-13T12:32:42;17.5;57.9
78516;SHT31;67815;51.990;5.688;2023-03-13T12:35:22;17.5;56.0
78516;SHT31;67815;51.990;5.688;2023-03-13T12:38:03;17.6;55.6
78516;SHT31;67815;51.990;5.688;2023-03-13T12:40:39;17.6;55.7
78516;SHT31;67815;51.990;5.688;2023-03-13T12:43:19;17.7;57.5
78516;SHT31;67815;51.990;5.688;2023-03-13T12:46:09;17.8;55.5
78516;SHT31;67815;51.990;5.688;2023-03-13T12:48:51;17.8;53.8
78516;SHT31;67815;51.990;5.688;2023-03-13T12:51:37;17.9;53.9
78516;SHT31;67815;51.990;5.688;2023-03-13T12:54:42;17.9;53.2
78516;SHT31;67815;51.990;5.688;2023-03-13T12:58:09;18.0;52.9
78516;SHT31;67815;51.990;5.688;2023-03-13T13:00:43;18.0;52.6
78516;SHT31;67815;51.990;5.688;2023-03-13T13:03:25;18.0;54.1
78516;SHT31;67815;51.990;5.688;2023-03-13T13:06:03;18.0;51.5
78516;SHT31;67815;51.990;5.688;2023-03-13T13:08:37;18.0;52.2
78516;SHT31;67815;51.990;5.688;2023-03-13T13:16:16;18.1;53.2
78516;SHT31;67815;51.990;5.688;2023-03-13T13:18:49;18.1;52.2
78516;SHT31;67815;51.990;5.688;2023-03-13T13:21:21;18.1;52.3
78516;SHT31;67815;51.990;5.688;2023-03-13T13:23:53;18.1;52.5
78516;SHT31;67815;51.990;5.688;2023-03-13T13:26:59;18.1;51.9
78516;SHT31;67815;51.990;5.688;2023-03-13T13:31:53;18.1;49.8
78516;SHT31;67815;51.990;5.688;2023-03-13T13:35:02;18.1;50.6
78516;SHT31;67815;51.990;5.688;2023-03-13T13:37:34;18.1;52.0
78516;SHT31;67815;51.990;5.688;2023-03-13T13:40:19;18.1;52.2
78516;SHT31;67815;51.990;5.688;2023-03-13T13:42:51;18.1;51.1
78516;SHT31;67815;51.990;5.688;2023-03-13T13:45:23;18.1;53.4
78516;SHT31;67815;51.990;5.688;2023-03-13T13:48:27;18.1;52.2
78516;SHT31;67815;51.990;5.688;2023-03-13T13:51:21;18.1;52.3
78516;SHT31;67815;51.990;5.688;2023-03-13T13:53:57;18.1;51.8
78516;SHT31;67815;51.990;5.688;2023-03-13T13:56:34;18.1;52.5
78516;SHT31;67815;51.990;5.688;2023-03-13T13:59:24;18.1;51.9
78516;SHT31;67815;51.990;5.688;2023-03-13T14:02:15;18.2;51.1
78516;SHT31;67815;51.990;5.688;2023-03-13T14:04:50;18.2;51.9
78516;SHT31;67815;51.990;5.688;2023-03-13T14:07:27;18.2;52.2
78516;SHT31;67815;51.990;5.688;2023-03-13T14:10:20;18.2;51.7
78516;SHT31;67815;51.990;5.688;2023-03-13T14:12:55;18.2;52.6
78516;SHT31;67815;51.990;5.688;2023-03-13T14:15:27;18.1;52.0
78516;SHT31;67815;51.990;5.688;2023-03-13T14:18:08;18.1;51.1
78516;SHT31;67815;51.990;5.688;2023-03-13T14:20:36;18.1;49.8
78516;SHT31;67815;51.990;5.688;2023-03-13T14:23:08;18.1;50.3
78516;SHT31;67815;51.990;5.688;2023-03-13T14:25:46;18.1;51.5
78516;SHT31;67815;51.990;5.688;2023-03-13T14:28:19;18.1;50.2
78516;SHT31;67815;51.990;5.688;2023-03-13T14:30:52;18.1;50.2
78516;SHT31;67815;51.990;5.688;2023-03-13T14:33:24;18.0;50.7
78516;SHT31;67815;51.990;5.688;2023-03-13T14:35:55;18.0;51.9
78516;SHT31;67815;51.990;5.688;2023-03-13T14:38:28;18.0;53.7
78516;SHT31;67815;51.990;5.688;2023-03-13T14:40:59;18.0;51.7
78516;SHT31;67815;51.990;5.688;2023-03-13T14:43:34;18.1;52.0
78516;SHT31;67815;51.990;5.688;2023-03-13T14:46:25;18.1;51.4
78516;SHT31;67815;51.990;5.688;2023-03-13T14:49:13;18.1;52.0
78516;SHT31;67815;51.990;5.688;2023-03-13T14:51:44;18.1;52.3
78516;SHT31;67815;51.990;5.688;2023-03-13T14:54:26;18.1;51.0
78516;SHT31;67815;51.990;5.688;2023-03-13T14:57:05;18.1;50.3
78516;SHT31;67815;51.990;5.688;2023-03-13T14:59:35;18.1;51.7
78516;SHT31;67815;51.990;5.688;2023-03-13T15:02:14;18.1;50.9
78516;SHT31;67815;51.990;5.688;2023-03-13T15:04:56;18.1;50.6
78516;SHT31;67815;51.990;5.688;2023-03-13T15:07:37;18.1;51.0
78516;SHT31;67815;51.990;5.688;2023-03-13T15:10:22;18.1;50.3
78516;SHT31;67815;51.990;5.688;2023-03-13T15:12:52;18.1;50.2
78516;SHT31;67815;51.990;5.688;2023-03-13T15:15:22;18.1;51.7
78516;SHT31;67815;51.990;5.688;2023-03-13T15:17:52;18.1;51.0
78516;SHT31;67815;51.990;5.688;2023-03-13T15:20:21;18.1;50.9
78516;SHT31;67815;51.990;5.688;2023-03-13T15:22:51;18.1;50.3
78516;SHT31;67815;51.990;5.688;2023-03-13T15:25:22;18.1;50.0
78516;SHT31;67815;51.990;5.688;2023-03-13T15:27:53;18.1;50.5
78516;SHT31;67815;51.990;5.688;2023-03-13T15:30:22;18.1;49.8
78516;SHT31;67815;51.990;5.688;2023-03-13T15:32:52;18.1;51.7
78516;SHT31;67815;51.990;5.688;2023-03-13T15:35:28;18.1;50.9
78516;SHT31;67815;51.990;5.688;2023-03-13T15:38:00;18.1;50.3
78516;SHT31;67815;51.990;5.688;2023-03-13T15:40:30;18.0;49.7
78516;SHT31;67815;51.990;5.688;2023-03-13T15:43:00;18.0;50.2
78516;SHT31;67815;51.990;5.688;2023-03-13T15:45:30;18.0;51.1
78516;SHT31;67815;51.990;5.688;2023-03-13T15:48:00;18.0;50.2
78516;SHT31;67815;51.990;5.688;2023-03-13T15:50:30;18.0;52.0
78516;SHT31;67815;51.990;5.688;2023-03-13T15:52:59;18.0;51.5
78516;SHT31;67815;51.990;5.688;2023-03-13T15:55:29;18.0;50.2
78516;SHT31;67815;51.990;5.688;2023-03-13T15:57:59;18.0;50.5
78516;SHT31;67815;51.990;5.688;2023-03-13T16:00:29;18.0;51.6
78516;SHT31;67815;51.990;5.688;2023-03-13T16:02:58;18.0;51.5
78516;SHT31;67815;51.990;5.688;2023-03-13T16:05:28;18.0;51.6
78516;SHT31;67815;51.990;5.688;2023-03-13T16:08:00;17.9;52.6
78516;SHT31;67815;51.990;5.688;2023-03-13T16:10:33;17.9;51.7
78516;SHT31;67815;51.990;5.688;2023-03-13T16:13:03;17.9;51.7
78516;SHT31;67815;51.990;5.688;2023-03-13T16:15:35;17.8;51.3
78516;SHT31;67815;51.990;5.688;2023-03-13T16:18:06;17.8;51.0
78516;SHT31;67815;51.990;5.688;2023-03-13T16:20:36;17.8;51.5
78516;SHT31;67815;51.990;5.688;2023-03-13T16:23:07;17.7;52.2
78516;SHT31;67815;51.990;5.688;2023-03-13T16:25:39;17.6;52.6
78516;SHT31;67815;51.990;5.688;2023-03-13T16:28:12;17.6;52.3
78516;SHT31;67815;51.990;5.688;2023-03-13T16:30:44;17.5;52.2
78516;SHT31;67815;51.990;5.688;2023-03-13T16:33:15;17.5;53.0
78516;SHT31;67815;51.990;5.688;2023-03-13T16:35:44;17.5;52.8
78516;SHT31;67815;51.990;5.688;2023-03-13T16:38:14;17.4;52.2
78516;SHT31;67815;51.990;5.688;2023-03-13T16:40:44;17.4;52.0
78516;SHT31;67815;51.990;5.688;2023-03-13T16:43:14;17.3;52.7
78516;SHT31;67815;51.990;5.688;2023-03-13T16:45:43;17.2;53.0
78516;SHT31;67815;51.990;5.688;2023-03-13T16:48:17;17.2;52.8